Time;durP1;ratioP1;P1;durP2;ratioP2;P2;SDS_P1;SDS_P2;PMS_P1;PMS_P2;Temp;Humidity;BMP_temperature;BMP_pressure;BME280_temperature;BME280_humidity;BME280_pressure;Samples;Min_cycle;Max_cycle;Signal;HPM_P1;HPM_P2
2022/02/21 00:01:11;;;;;;;3.08;1.70;;;11.60;99.90;;;;;;5034471;28;20516;-93
2022/02/21 00:03:37;;;;;;;2.90;1.55;;;11.60;99.90;;;;;;5018031;28;20032;-93
2022/02/21 00:06:03;;;;;;;3.00;1.80;;;11.80;99.90;;;;;;5034013;28;20030;-93
2022/02/21 00:08:28;;;;;;;2.60;1.48;;;11.60;99.90;;;;;;5034662;28;20026;-93
2022/02/21 00:10:54;;;;;;;1.30;1.13;;;11.70;99.90;;;;;;5034205;28;20038;-93
2022/02/21 00:13:19;;;;;;;1.98;1.20;;;11.70;99.90;;;;;;5033252;28;20033;-93
2022/02/21 00:15:45;;;;;;;1.17;1.08;;;11.60;99.90;;;;;;5019260;28;20029;-94
2022/02/21 00:18:11;;;;;;;1.55;1.15;;;11.80;99.90;;;;;;5016333;28;20083;-93
2022/02/21 00:20:36;;;;;;;3.22;1.30;;;11.90;99.90;;;;;;5034408;28;20104;-94
2022/02/21 00:23:03;;;;;;;1.33;1.23;;;11.80;99.90;;;;;;5018004;28;20037;-93
2022/02/21 00:25:29;;;;;;;2.05;1.20;;;12.10;99.90;;;;;;5033735;28;20025;-93
2022/02/21 00:27:55;;;;;;;1.70;1.20;;;11.80;99.90;;;;;;5033948;28;20037;-93
2022/02/21 00:30:20;;;;;;;4.63;2.60;;;11.80;99.90;;;;;;5034279;28;20386;-93
2022/02/21 00:32:46;;;;;;;5.85;3.30;;;11.70;99.90;;;;;;5034149;28;20045;-93
2022/02/21 00:35:12;;;;;;;4.97;3.05;;;11.80;99.90;;;;;;5033102;28;20025;-93
2022/02/21 00:37:38;;;;;;;6.00;4.10;;;11.70;99.90;;;;;;5033487;28;20049;-93
2022/02/21 00:40:06;;;;;;;7.10;4.05;;;11.60;99.90;;;;;;5017349;28;20029;-93
2022/02/21 00:42:31;;;;;;;6.50;3.33;;;11.70;99.90;;;;;;5017556;28;20479;-93
2022/02/21 00:44:58;;;;;;;6.20;3.95;;;11.60;99.90;;;;;;5033929;28;20107;-93
2022/02/21 00:47:26;;;;;;;5.03;2.70;;;11.50;99.90;;;;;;5032526;28;20490;-93
2022/02/21 00:49:53;;;;;;;4.40;3.30;;;11.70;99.90;;;;;;5033064;28;20155;-93
2022/02/21 00:52:19;;;;;;;3.20;2.40;;;11.60;99.90;;;;;;5033188;28;20040;-93
2022/02/21 00:54:45;;;;;;;3.65;2.42;;;11.90;99.90;;;;;;5033539;28;20036;-93
2022/02/21 00:57:10;;;;;;;2.03;1.48;;;11.60;99.90;;;;;;5032274;28;20025;-93
2022/02/21 00:59:36;;;;;;;2.83;1.70;;;11.60;99.90;;;;;;5016174;28;20033;-93
2022/02/21 01:02:03;;;;;;;2.80;1.67;;;11.50;99.90;;;;;;5032755;28;20036;-93
2022/02/21 01:04:29;;;;;;;2.90;1.60;;;11.50;99.90;;;;;;5032813;28;20033;-93
2022/02/21 01:06:55;;;;;;;1.52;1.40;;;11.40;99.90;;;;;;5033159;28;20079;-93
2022/02/21 01:09:22;;;;;;;2.15;1.67;;;11.40;99.90;;;;;;5032981;28;20095;-93
2022/02/21 01:11:47;;;;;;;1.75;1.17;;;11.30;99.90;;;;;;5015927;28;20025;-93
2022/02/21 01:14:13;;;;;;;2.50;1.58;;;11.20;99.90;;;;;;5033052;28;20127;-93
2022/02/21 01:16:39;;;;;;;2.17;1.98;;;11.20;99.90;;;;;;5016466;28;20049;-93
2022/02/21 01:19:04;;;;;;;1.85;1.60;;;11.60;99.90;;;;;;5017530;28;20572;-93
2022/02/21 01:21:31;;;;;;;1.88;1.40;;;11.10;99.90;;;;;;5032997;28;20026;-93
2022/02/21 01:23:57;;;;;;;2.47;1.67;;;11.00;99.90;;;;;;5032988;28;20068;-93
2022/02/21 01:26:23;;;;;;;2.00;1.25;;;11.00;99.90;;;;;;5014936;28;20022;-93
2022/02/21 01:28:49;;;;;;;1.88;1.35;;;11.50;99.90;;;;;;5032394;28;20026;-93
2022/02/21 01:31:14;;;;;;;1.42;1.20;;;11.70;99.90;;;;;;5032858;28;20487;-93
2022/02/21 01:33:40;;;;;;;1.60;1.17;;;11.50;99.90;;;;;;5032258;28;20040;-93
2022/02/21 01:36:06;;;;;;;2.30;1.45;;;11.20;99.90;;;;;;5032911;28;20032;-93
2022/02/21 01:38:32;;;;;;;1.95;1.35;;;11.30;99.90;;;;;;5026685;28;20041;-92
2022/02/21 01:40:57;;;;;;;2.25;1.30;;;11.30;99.90;;;;;;5022220;28;20025;-93
2022/02/21 01:43:23;;;;;;;1.50;1.10;;;11.30;99.90;;;;;;5032584;28;20071;-92
2022/02/21 01:45:49;;;;;;;1.50;1.33;;;11.50;99.90;;;;;;5016355;28;20577;-92
2022/02/21 01:48:14;;;;;;;3.40;1.40;;;11.70;99.90;;;;;;5014627;28;20029;-92
2022/02/21 01:50:40;;;;;;;2.47;1.60;;;11.40;99.90;;;;;;5032788;28;20426;-93
2022/02/21 01:53:06;;;;;;;2.00;1.40;;;11.30;99.90;;;;;;5032149;28;20441;-92
2022/02/21 01:55:31;;;;;;;2.33;1.13;;;11.30;99.90;;;;;;5032107;28;20148;-92
2022/02/21 01:57:57;;;;;;;1.85;1.23;;;11.40;99.90;;;;;;5017324;28;20442;-92
2022/02/21 02:00:23;;;;;;;1.70;0.93;;;11.30;99.90;;;;;;5015246;28;20518;-92
2022/02/21 02:02:48;;;;;;;4.13;1.23;;;11.40;99.90;;;;;;5032677;28;20030;-92
2022/02/21 02:05:15;;;;;;;1.42;1.10;;;11.90;99.90;;;;;;5032351;28;20052;-92
2022/02/21 02:07:41;;;;;;;1.35;1.02;;;11.70;99.90;;;;;;5032160;28;20030;-93
2022/02/21 02:10:08;;;;;;;5.85;1.63;;;11.40;99.90;;;;;;5032028;28;20026;-93
2022/02/21 02:12:34;;;;;;;4.00;1.70;;;11.40;99.90;;;;;;5032096;28;20026;-93
2022/02/21 02:15:00;;;;;;;2.28;1.10;;;11.30;99.90;;;;;;5032835;28;20030;-93
2022/02/21 02:17:26;;;;;;;1.88;1.33;;;11.30;99.90;;;;;;5032290;28;20018;-93
2022/02/21 02:19:51;;;;;;;3.55;1.20;;;11.70;99.90;;;;;;5031944;28;20029;-93
2022/02/21 02:22:22;;;;;;;2.35;1.00;;;11.30;99.90;;;;;;5032487;28;20087;-94
2022/02/21 02:24:51;;;;;;;2.28;1.30;;;11.40;99.90;;;;;;5032350;28;20036;-94
2022/02/21 02:27:18;;;;;;;2.55;1.30;;;11.30;99.90;;;;;;5014698;28;20057;-94
2022/02/21 02:29:49;;;;;;;2.03;1.10;;;11.30;99.90;;;;;;5032828;28;20080;-94
2022/02/21 02:32:15;;;;;;;3.42;1.17;;;11.20;99.90;;;;;;5015384;28;20037;-94
2022/02/21 02:34:46;;;;;;;3.00;1.27;;;11.70;99.90;;;;;;5015774;28;20032;-94
2022/02/21 02:37:12;;;;;;;2.45;1.40;;;11.40;99.90;;;;;;5033073;28;20053;-94
2022/02/21 02:39:39;;;;;;;2.88;1.40;;;11.30;99.90;;;;;;5035960;28;20092;-94
2022/02/21 02:42:05;;;;;;;2.40;1.40;;;11.20;99.90;;;;;;5035943;28;20033;-94
2022/02/21 02:44:31;;;;;;;3.28;1.25;;;11.20;99.90;;;;;;5033867;28;20029;-94
2022/02/21 02:46:57;;;;;;;1.85;1.20;;;11.30;99.90;;;;;;5035676;28;20025;-94
2022/02/21 02:49:22;;;;;;;4.25;1.40;;;11.30;99.90;;;;;;5035610;28;20807;-93
2022/02/21 02:51:48;;;;;;;2.38;1.20;;;11.30;99.90;;;;;;5036225;28;20018;-94
2022/02/21 02:54:14;;;;;;;2.60;1.48;;;11.30;99.90;;;;;;5035565;28;20048;-92
2022/02/21 02:56:41;;;;;;;4.30;1.30;;;11.30;99.90;;;;;;5036196;28;20062;-93
2022/02/21 02:59:08;;;;;;;2.60;1.40;;;11.60;99.90;;;;;;5035298;28;20043;-93
2022/02/21 03:01:33;;;;;;;5.10;1.60;;;11.30;99.90;;;;;;5035190;28;20109;-93
2022/02/21 03:04:00;;;;;;;3.13;1.38;;;11.30;99.90;;;;;;5035486;28;20067;-93
2022/02/21 03:06:25;;;;;;;4.07;1.30;;;11.40;99.90;;;;;;5019106;28;20038;-94
2022/02/21 03:08:51;;;;;;;2.55;1.30;;;11.50;99.90;;;;;;5018253;28;20026;-94
2022/02/21 03:11:17;;;;;;;3.10;1.33;;;11.50;99.90;;;;;;5034307;28;20065;-94
2022/02/21 03:13:42;;;;;;;3.15;1.40;;;11.40;99.90;;;;;;5020351;28;20039;-94
2022/02/21 03:16:08;;;;;;;3.92;1.35;;;11.50;99.90;;;;;;5019958;28;20029;-94
2022/02/21 03:18:34;;;;;;;6.32;2.40;;;11.50;99.90;;;;;;5018933;28;20025;-93
2022/02/21 03:21:00;;;;;;;3.17;1.73;;;11.40;99.90;;;;;;5017775;28;20034;-94
2022/02/21 03:23:25;;;;;;;2.20;1.50;;;11.40;99.90;;;;;;5021111;28;20022;-93
2022/02/21 03:25:51;;;;;;;4.80;1.58;;;11.40;99.90;;;;;;5017942;28;20504;-94
2022/02/21 03:28:18;;;;;;;4.50;1.60;;;11.30;99.90;;;;;;5035040;28;20034;-93
2022/02/21 03:30:44;;;;;;;3.65;1.23;;;11.40;99.90;;;;;;5017976;28;20038;-93
2022/02/21 03:33:09;;;;;;;1.90;1.10;;;11.30;99.90;;;;;;5035299;28;20034;-93
2022/02/21 03:35:35;;;;;;;2.05;1.40;;;11.30;99.90;;;;;;5017786;28;20056;-93
2022/02/21 03:38:01;;;;;;;1.55;1.20;;;11.30;99.90;;;;;;5018272;28;20434;-93
2022/02/21 03:40:27;;;;;;;3.42;1.83;;;11.30;99.90;;;;;;5034647;28;20053;-93
2022/02/21 03:42:53;;;;;;;5.03;1.40;;;11.30;99.90;;;;;;5035220;28;20123;-93
2022/02/21 03:45:20;;;;;;;2.88;1.55;;;11.20;99.90;;;;;;5034720;28;20029;-93
2022/02/21 03:47:46;;;;;;;1.85;1.40;;;11.10;99.90;;;;;;5017907;28;20104;-93
2022/02/21 03:50:12;;;;;;;3.10;1.63;;;11.10;99.90;;;;;;5034005;28;20029;-93
2022/02/21 03:52:38;;;;;;;2.08;1.35;;;11.10;99.90;;;;;;5034434;28;20018;-93
2022/02/21 03:55:04;;;;;;;1.80;1.50;;;11.10;99.90;;;;;;5034387;28;20033;-93
2022/02/21 03:57:30;;;;;;;2.47;1.40;;;11.10;99.90;;;;;;5034375;28;20510;-94
2022/02/21 03:59:55;;;;;;;6.00;1.60;;;11.10;99.90;;;;;;5033472;28;20026;-94
2022/02/21 04:02:21;;;;;;;2.97;1.60;;;11.10;99.90;;;;;;5018278;28;20083;-94
2022/02/21 04:04:47;;;;;;;3.28;1.40;;;11.00;99.90;;;;;;5034213;28;20037;-94
2022/02/21 04:07:12;;;;;;;3.45;1.58;;;11.00;99.90;;;;;;5034145;28;20033;-95
2022/02/21 04:09:38;;;;;;;5.03;1.50;;;11.10;99.90;;;;;;5034694;28;20068;-94
2022/02/21 04:12:06;;;;;;;2.90;1.40;;;11.00;99.90;;;;;;5033125;28;20040;-95
2022/02/21 04:14:32;;;;;;;2.78;1.40;;;11.00;99.90;;;;;;5032625;28;20037;-94
2022/02/21 04:16:57;;;;;;;3.08;1.40;;;11.00;99.90;;;;;;5017793;28;20025;-94
2022/02/21 04:19:24;;;;;;;3.78;1.67;;;11.00;99.90;;;;;;5033965;28;20037;-94
2022/02/21 04:21:51;;;;;;;2.88;1.77;;;11.00;99.90;;;;;;5034244;28;20025;-95
2022/02/21 04:24:16;;;;;;;2.83;1.60;;;10.90;99.90;;;;;;5034257;28;20493;-94
2022/02/21 04:26:42;;;;;;;2.83;1.40;;;10.80;99.90;;;;;;5034008;28;20022;-94
2022/02/21 04:29:08;;;;;;;4.35;1.80;;;10.70;99.90;;;;;;5034060;28;20033;-94
2022/02/21 04:31:33;;;;;;;4.70;1.25;;;10.70;99.90;;;;;;5033771;28;20025;-94
2022/02/21 04:33:59;;;;;;;4.15;1.40;;;10.90;99.90;;;;;;5018055;28;20033;-94
2022/02/21 04:36:25;;;;;;;3.55;1.60;;;11.00;99.90;;;;;;5033567;28;20033;-94
2022/02/21 04:38:51;;;;;;;4.15;1.60;;;11.00;99.90;;;;;;5034020;28;20029;-94
2022/02/21 04:41:17;;;;;;;1.88;1.08;;;10.90;99.90;;;;;;5018441;28;20041;-94
2022/02/21 04:43:43;;;;;;;2.83;1.30;;;11.10;99.90;;;;;;5033998;28;20029;-94
2022/02/21 04:46:09;;;;;;;2.78;1.30;;;11.10;99.90;;;;;;5019062;28;20413;-94
2022/02/21 04:48:35;;;;;;;2.17;1.30;;;11.00;99.90;;;;;;5017340;28;20040;-94
2022/02/21 04:51:01;;;;;;;6.38;2.20;;;11.00;99.90;;;;;;5033721;28;20026;-94
2022/02/21 04:53:26;;;;;;;7.90;2.63;;;11.50;99.90;;;;;;5017241;28;20038;-93
2022/02/21 04:55:52;;;;;;;3.90;1.77;;;11.00;99.90;;;;;;5017931;28;20030;-93
2022/02/21 04:58:18;;;;;;;4.50;1.70;;;11.10;99.90;;;;;;5032966;28;20065;-94
2022/02/21 05:00:44;;;;;;;3.58;1.20;;;11.00;99.90;;;;;;5033553;28;20028;-95
2022/02/21 05:03:10;;;;;;;3.78;1.30;;;10.90;99.90;;;;;;5032327;28;20025;-93
2022/02/21 05:05:35;;;;;;;2.05;1.30;;;11.00;99.90;;;;;;5033825;28;20482;-95
2022/02/21 05:08:02;;;;;;;2.83;1.35;;;11.00;99.90;;;;;;5033260;28;20072;-94
2022/02/21 05:10:28;;;;;;;5.07;2.20;;;10.90;99.90;;;;;;5032849;28;20067;-94
2022/02/21 05:12:54;;;;;;;3.30;1.50;;;10.80;99.90;;;;;;5018408;28;20048;-94
2022/02/21 05:15:20;;;;;;;5.65;2.17;;;10.90;99.90;;;;;;5033505;28;20029;-94
2022/02/21 05:17:45;;;;;;;3.95;1.70;;;10.90;99.90;;;;;;5033772;28;20030;-93
2022/02/21 05:20:12;;;;;;;3.38;1.63;;;10.90;99.90;;;;;;5016436;28;20026;-94
2022/02/21 05:22:37;;;;;;;4.70;1.08;;;10.90;99.90;;;;;;5032828;28;20052;-94
2022/02/21 05:25:04;;;;;;;2.70;1.23;;;10.80;99.90;;;;;;5032695;28;20489;-93
2022/02/21 05:27:40;;;;;;;4.53;1.00;;;10.70;99.90;;;;;;5032793;28;20575;-94
2022/02/21 05:30:07;;;;;;;3.10;0.98;;;10.70;99.90;;;;;;5026645;28;20029;-94
2022/02/21 05:32:33;;;;;;;1.27;0.70;;;10.80;99.90;;;;;;5031255;28;20026;-94
2022/02/21 05:34:59;;;;;;;3.30;1.58;;;10.90;99.90;;;;;;5033161;28;20052;-95
2022/02/21 05:37:25;;;;;;;2.00;1.00;;;10.90;99.90;;;;;;5016291;28;20041;-94
2022/02/21 05:39:51;;;;;;;1.98;1.20;;;11.00;99.90;;;;;;5016111;28;20036;-94
2022/02/21 05:42:17;;;;;;;3.22;1.20;;;11.00;99.90;;;;;;5032885;28;20022;-94
2022/02/21 05:44:42;;;;;;;3.25;1.35;;;11.10;99.90;;;;;;5015764;28;20065;-94
2022/02/21 05:47:08;;;;;;;1.73;0.90;;;11.10;99.90;;;;;;5017329;28;20033;-94
2022/02/21 05:49:34;;;;;;;3.10;1.23;;;11.10;99.90;;;;;;5016267;28;20541;-93
2022/02/21 05:52:01;;;;;;;3.08;1.30;;;11.20;99.90;;;;;;5032613;28;20030;-93
2022/02/21 05:54:26;;;;;;;2.50;1.15;;;11.20;99.90;;;;;;5032549;28;20048;-94
2022/02/21 05:56:52;;;;;;;3.45;1.20;;;11.20;99.90;;;;;;5031992;28;20079;-93
2022/02/21 05:59:18;;;;;;;3.85;1.40;;;10.90;99.90;;;;;;5032437;28;20445;-93
2022/02/21 06:01:44;;;;;;;6.75;2.97;;;10.90;1.00;;;;;;5032536;28;20025;-93
2022/02/21 06:04:10;;;;;;;5.15;2.47;;;10.80;1.00;;;;;;5015841;28;20095;-93
2022/02/21 06:06:35;;;;;;;3.13;1.95;;;10.60;99.90;;;;;;5032319;28;20053;-93
2022/02/21 06:09:03;;;;;;;2.88;1.50;;;10.40;99.90;;;;;;5032374;28;20053;-93
2022/02/21 06:11:28;;;;;;;3.90;1.42;;;10.60;99.90;;;;;;5015331;28;20026;-93
2022/02/21 06:13:54;;;;;;;3.15;1.17;;;10.30;99.90;;;;;;5020222;28;20044;-93
2022/02/21 06:16:20;;;;;;;3.67;1.40;;;10.60;99.90;;;;;;5020385;28;20025;-92
2022/02/21 06:18:46;;;;;;;2.50;1.10;;;10.70;1.00;;;;;;5021283;28;20498;-92
2022/02/21 06:21:12;;;;;;;2.45;1.20;;;10.70;99.90;;;;;;5018980;28;20036;-93
2022/02/21 06:23:38;;;;;;;5.05;1.50;;;10.70;99.90;;;;;;5019131;28;20037;-93
2022/02/21 06:26:04;;;;;;;5.38;1.75;;;10.80;99.90;;;;;;5019991;28;20030;-93
2022/02/21 06:28:30;;;;;;;7.28;1.67;;;10.80;99.90;;;;;;5036940;28;20029;-93
2022/02/21 06:30:56;;;;;;;4.03;2.10;;;10.80;99.90;;;;;;5019796;28;20025;-93
2022/02/21 06:33:22;;;;;;;3.70;1.58;;;10.60;99.90;;;;;;5019196;28;20038;-93
2022/02/21 06:35:47;;;;;;;6.28;1.95;;;10.70;99.90;;;;;;5036800;28;20083;-93
2022/02/21 06:38:13;;;;;;;4.40;3.10;;;10.70;99.90;;;;;;5019906;28;20037;-92
2022/02/21 06:40:39;;;;;;;6.07;3.15;;;10.70;99.90;;;;;;5036431;28;20025;-93
2022/02/21 06:43:05;;;;;;;4.80;1.90;;;10.70;99.90;;;;;;5035977;28;20056;-92
2022/02/21 06:45:30;;;;;;;3.92;2.03;;;10.60;99.90;;;;;;5036005;28;20029;-92
2022/02/21 06:47:57;;;;;;;7.63;2.65;;;11.20;99.90;;;;;;5036053;28;20029;-93
2022/02/21 06:50:24;;;;;;;6.80;2.55;;;10.70;99.90;;;;;;5018433;28;20033;-93
2022/02/21 06:52:50;;;;;;;4.38;1.75;;;10.60;99.90;;;;;;5020624;28;20063;-93
2022/02/21 06:55:16;;;;;;;4.90;3.13;;;10.50;99.90;;;;;;5020472;28;20025;-94
2022/02/21 06:57:45;;;;;;;6.78;3.00;;;10.50;99.90;;;;;;5036259;28;20477;-93
2022/02/21 07:00:11;;;;;;;3.85;1.92;;;10.60;1.00;;;;;;5036622;28;20030;-94
2022/02/21 07:02:37;;;;;;;4.45;2.22;;;10.50;1.00;;;;;;5020531;28;20020;-93
2022/02/21 07:05:05;;;;;;;7.57;2.40;;;10.80;99.90;;;;;;5019455;28;20025;-94
2022/02/21 07:07:31;;;;;;;4.55;1.80;;;10.40;99.90;;;;;;5035013;28;20042;-94
2022/02/21 07:09:57;;;;;;;4.32;1.50;;;10.40;1.00;;;;;;5019313;28;20037;-93
2022/02/21 07:12:22;;;;;;;2.28;1.60;;;10.40;99.90;;;;;;5018993;28;20026;-93
2022/02/21 07:14:48;;;;;;;6.20;5.45;;;10.40;99.90;;;;;;5032268;28;20029;-92
2022/02/21 07:17:14;;;;;;;4.88;2.00;;;10.00;1.00;;;;;;5035188;28;20487;-92
2022/02/21 07:19:40;;;;;;;10.05;2.60;;;9.40;99.90;;;;;;5035418;28;20402;-92
2022/02/21 07:22:05;;;;;;;12.90;2.80;;;9.20;99.90;;;;;;5034877;28;20021;-93
2022/02/21 07:24:31;;;;;;;14.82;4.43;;;9.30;99.90;;;;;;5018912;28;20053;-93
2022/02/21 07:26:57;;;;;;;10.73;2.83;;;9.30;99.90;;;;;;5035219;28;20025;-93
2022/02/21 07:29:23;;;;;;;19.15;4.10;;;9.10;99.90;;;;;;5035155;28;20034;-92
2022/02/21 07:31:50;;;;;;;23.08;3.92;;;9.40;1.00;;;;;;5020148;28;20033;-92
2022/02/21 07:34:16;;;;;;;15.23;3.42;;;8.80;1.00;;;;;;5035162;28;20067;-92
2022/02/21 07:36:41;;;;;;;14.27;3.90;;;8.90;1.00;;;;;;5034237;28;20041;-93
2022/02/21 07:39:07;;;;;;;18.73;4.30;;;9.40;1.00;;;;;;5034912;28;20390;-93
2022/02/21 07:41:33;;;;;;;16.33;4.05;;;9.10;1.00;;;;;;5035486;28;20030;-92
2022/02/21 07:43:59;;;;;;;15.48;3.78;;;9.20;99.90;;;;;;5018545;28;20029;-93
2022/02/21 07:46:25;;;;;;;18.60;4.22;;;9.70;1.00;;;;;;5034779;28;20033;-94
2022/02/21 07:48:50;;;;;;;21.38;4.30;;;9.30;99.90;;;;;;5018516;28;20493;-93
2022/02/21 07:51:16;;;;;;;18.17;4.07;;;9.80;1.00;;;;;;5016854;28;20040;-94
2022/02/21 07:53:41;;;;;;;18.25;4.13;;;9.40;99.90;;;;;;5018701;28;20033;-94
2022/02/21 07:56:07;;;;;;;21.45;5.85;;;9.60;99.90;;;;;;5034383;28;20033;-94
2022/02/21 07:58:33;;;;;;;15.32;3.80;;;9.80;1.00;;;;;;5034171;28;20061;-94
2022/02/21 08:00:58;;;;;;;19.65;4.25;;;9.90;99.90;;;;;;5018500;28;20123;-93
2022/02/21 08:03:24;;;;;;;18.90;4.38;;;9.70;99.90;;;;;;5034869;28;20032;-94
2022/02/21 08:05:50;;;;;;;20.08;4.90;;;9.80;99.90;;;;;;5034660;28;20048;-94
2022/02/21 08:08:15;;;;;;;23.77;5.28;;;9.80;99.90;;;;;;5019318;28;20096;-94
2022/02/21 08:10:41;;;;;;;18.42;4.72;;;10.10;99.90;;;;;;5017987;28;20030;-94
2022/02/21 08:13:07;;;;;;;19.08;4.15;;;10.20;1.00;;;;;;5034040;28;20033;-93
2022/02/21 08:15:32;;;;;;;26.27;5.60;;;10.20;1.00;;;;;;5034291;28;20021;-94
2022/02/21 08:17:58;;;;;;;21.05;5.90;;;10.50;1.00;;;;;;5034386;28;20021;-94
2022/02/21 08:20:24;;;;;;;24.58;5.40;;;10.70;1.00;;;;;;5034236;28;20029;-94
2022/02/21 08:22:51;;;;;;;17.17;4.80;;;11.20;1.00;;;;;;5034222;28;20528;-94
2022/02/21 08:25:17;;;;;;;23.02;5.35;;;11.30;1.00;;;;;;5033852;28;20036;-94
2022/02/21 08:27:45;;;;;;;15.63;4.72;;;11.60;1.00;;;;;;5033789;28;20038;-94
2022/02/21 08:30:13;;;;;;;17.40;5.10;;;11.70;1.00;;;;;;5033985;28;20053;-94
2022/02/21 08:32:39;;;;;;;17.23;5.18;;;11.70;1.00;;;;;;5016949;28;20041;-94
2022/02/21 08:35:06;;;;;;;15.32;4.40;;;11.80;99.90;;;;;;5017772;28;20470;-94
2022/02/21 08:37:32;;;;;;;18.58;4.72;;;12.00;1.00;;;;;;5017062;28;20453;-94
2022/02/21 08:39:58;;;;;;;15.10;4.40;;;12.90;99.90;;;;;;5018563;28;20040;-94
2022/02/21 08:42:24;;;;;;;12.60;3.92;;;13.20;99.90;;;;;;5034259;28;20032;-94
2022/02/21 08:44:49;;;;;;;17.80;4.55;;;13.40;99.90;;;;;;5034384;28;20033;-93
2022/02/21 08:47:16;;;;;;;13.82;4.35;;;13.90;99.90;;;;;;5016797;28;20025;-93
2022/02/21 08:49:43;;;;;;;12.23;3.83;;;14.20;99.90;;;;;;5033330;28;20041;-94
2022/02/21 08:52:09;;;;;;;11.38;3.63;;;14.80;99.90;;;;;;5033079;28;20036;-93
2022/02/21 08:54:36;;;;;;;12.88;3.28;;;13.20;1.00;;;;;;5033334;28;20457;-93
2022/02/21 08:57:05;;;;;;;11.75;2.90;;;13.60;99.90;;;;;;5033246;28;20048;-93
2022/02/21 08:59:31;;;;;;;10.68;3.20;;;13.20;99.90;;;;;;5033531;28;20064;-93
2022/02/21 09:01:58;;;;;;;11.77;3.72;;;13.90;99.90;;;;;;5016675;28;20065;-94
2022/02/21 09:04:24;;;;;;;12.50;3.40;;;13.80;99.90;;;;;;5033029;28;20040;-93
2022/02/21 09:06:50;;;;;;;11.05;3.67;;;13.90;99.90;;;;;;5033179;28;20030;-92
2022/02/21 09:09:15;;;;;;;11.68;3.25;;;14.20;99.90;;;;;;5033503;28;20067;-94
2022/02/21 09:11:41;;;;;;;9.98;3.38;;;13.80;99.90;;;;;;5033783;28;20124;-93
2022/02/21 09:14:07;;;;;;;12.25;3.30;;;14.60;99.90;;;;;;5016799;28;20049;-94
2022/02/21 09:16:33;;;;;;;7.93;3.40;;;14.50;99.90;;;;;;5017692;28;20025;-93
2022/02/21 09:18:58;;;;;;;12.25;4.10;;;14.60;99.90;;;;;;5032941;28;20383;-93
2022/02/21 09:21:24;;;;;;;10.38;3.58;;;14.80;99.90;;;;;;5015705;28;20087;-93
2022/02/21 09:23:50;;;;;;;12.30;4.25;;;15.00;99.90;;;;;;5033745;28;20021;-93
2022/02/21 09:26:16;;;;;;;16.23;4.45;;;14.40;99.90;;;;;;5016485;28;20048;-93
2022/02/21 09:28:42;;;;;;;16.25;3.78;;;14.20;99.90;;;;;;5032479;28;20394;-93
2022/02/21 09:31:07;;;;;;;14.25;4.03;;;14.20;99.90;;;;;;5032514;28;20033;-93
2022/02/21 09:33:33;;;;;;;18.83;3.85;;;13.00;99.90;;;;;;5016130;28;20065;-93
2022/02/21 09:35:59;;;;;;;15.55;3.83;;;12.30;99.90;;;;;;5032505;28;20029;-92
2022/02/21 09:38:25;;;;;;;14.98;3.78;;;13.30;99.90;;;;;;5032735;28;20043;-92
2022/02/21 09:40:50;;;;;;;16.08;4.07;;;13.20;99.90;;;;;;5032455;28;20117;-93
2022/02/21 09:43:22;;;;;;;19.45;4.60;;;12.30;99.90;;;;;;5032305;28;20037;-92
2022/02/21 09:45:48;;;;;;;15.27;3.90;;;12.40;99.90;;;;;;5032016;28;20521;-92
2022/02/21 09:48:15;;;;;;;18.20;4.00;;;12.70;99.90;;;;;;5014070;28;20038;-93
2022/02/21 09:50:41;;;;;;;14.90;3.70;;;14.00;99.90;;;;;;5032710;28;20080;-92
2022/02/21 09:53:08;;;;;;;15.13;3.97;;;13.90;99.90;;;;;;5032503;28;20033;-93
2022/02/21 09:55:35;;;;;;;14.82;4.13;;;15.60;99.90;;;;;;5032413;28;20033;-93
2022/02/21 09:58:02;;;;;;;14.63;4.22;;;14.70;99.90;;;;;;5032084;28;20033;-92
2022/02/21 10:00:27;;;;;;;14.27;4.18;;;15.40;99.90;;;;;;5031772;28;20025;-93
2022/02/21 10:02:53;;;;;;;15.02;4.28;;;15.60;99.90;;;;;;5032454;28;20036;-92
2022/02/21 10:05:26;;;;;;;13.40;3.40;;;14.20;99.90;;;;;;5031981;28;20029;-93
2022/02/21 10:07:53;;;;;;;14.40;3.58;;;14.80;99.90;;;;;;5031955;28;20021;-92
2022/02/21 10:10:21;;;;;;;13.73;3.90;;;14.10;99.90;;;;;;5015700;28;20432;-93
2022/02/21 10:12:48;;;;;;;10.52;3.42;;;14.70;99.90;;;;;;5017288;28;20040;-92
2022/02/21 10:15:19;;;;;;;13.10;4.32;;;14.40;99.90;;;;;;5031918;28;20505;-92
2022/02/21 10:17:46;;;;;;;15.98;4.15;;;14.20;99.90;;;;;;5032574;28;20026;-92
2022/02/21 10:20:13;;;;;;;12.18;3.78;;;14.00;99.90;;;;;;5015688;28;20026;-92
2022/02/21 10:22:39;;;;;;;13.88;3.70;;;15.10;99.90;;;;;;5016614;28;20022;-93
2022/02/21 10:25:23;;;;;;;13.70;3.45;;;14.50;99.90;;;;;;5016188;28;20097;-93
2022/02/21 10:27:48;;;;;;;16.25;4.60;;;16.90;99.90;;;;;;5031912;28;20052;-93
2022/02/21 10:30:16;;;;;;;11.00;3.65;;;17.70;99.90;;;;;;5014310;28;20053;-93
2022/02/21 10:32:43;;;;;;;13.27;3.63;;;17.80;99.90;;;;;;5032435;28;20029;-93
2022/02/21 10:35:16;;;;;;;14.05;4.75;;;18.50;99.90;;;;;;5031562;28;20026;-92
2022/02/21 10:37:43;;;;;;;14.45;3.97;;;16.50;99.90;;;;;;5032101;28;20049;-93
2022/02/21 10:40:12;;;;;;;15.32;3.97;;;16.60;99.90;;;;;;5032044;28;20033;-93
2022/02/21 10:42:38;;;;;;;20.13;5.30;;;16.40;99.90;;;;;;5015380;28;20056;-92
2022/02/21 10:45:14;;;;;;;16.02;3.97;;;19.10;99.90;;;;;;5014587;28;20114;-93
2022/02/21 10:47:56;;;;;;;14.38;4.20;;;20.10;99.90;;;;;;5030773;28;20080;-92
2022/02/21 10:50:22;;;;;;;16.25;4.32;;;21.10;99.90;;;;;;5031672;28;20108;-93
2022/02/21 10:52:48;;;;;;;13.07;4.00;;;21.80;99.90;;;;;;5016290;28;20601;-93
2022/02/21 10:55:14;;;;;;;15.98;4.15;;;20.70;99.90;;;;;;5031681;28;20034;-93
2022/02/21 10:57:45;;;;;;;14.95;4.38;;;18.00;99.90;;;;;;5031895;28;20056;-93
2022/02/21 11:00:11;;;;;;;14.90;4.40;;;18.40;99.90;;;;;;5034899;28;20111;-93
2022/02/21 11:02:41;;;;;;;13.65;3.63;;;18.50;99.90;;;;;;5035749;28;20022;-93
2022/02/21 11:05:09;;;;;;;14.90;4.32;;;16.30;99.90;;;;;;5035187;28;20033;-92
2022/02/21 11:07:41;;;;;;;12.40;3.70;;;14.50;99.90;;;;;;5020113;28;20026;-93
2022/02/21 11:10:08;;;;;;;11.68;3.65;;;13.50;99.90;;;;;;5035419;28;20171;-92
2022/02/21 11:12:39;;;;;;;14.30;4.00;;;12.70;99.90;;;;;;5034717;28;20053;-93
2022/02/21 11:15:06;;;;;;;17.30;4.15;;;12.20;99.90;;;;;;5017712;28;20040;-92
2022/02/21 11:17:34;;;;;;;14.27;3.65;;;11.90;99.90;;;;;;5018052;28;20494;-92
2022/02/21 11:20:00;;;;;;;18.05;4.30;;;11.80;99.90;;;;;;5034667;28;20120;-92
2022/02/21 11:22:28;;;;;;;17.63;4.07;;;11.60;99.90;;;;;;5035298;28;20095;-92
2022/02/21 11:25:27;;;;;;;15.02;3.97;;;11.60;99.90;;;;;;5034641;28;20029;-93
2022/02/21 11:27:59;;;;;;;19.63;3.97;;;11.70;99.90;;;;;;5009768;28;20033;-93
2022/02/21 11:30:27;;;;;;;13.07;3.72;;;11.50;99.90;;;;;;5019977;28;20025;-94
2022/02/21 11:33:10;;;;;;;15.50;4.18;;;12.00;99.90;;;;;;5035987;28;20122;-94
2022/02/21 11:35:39;;;;;;;21.15;4.35;;;11.40;99.90;;;;;;5033707;28;20040;-94
2022/02/21 11:38:17;;;;;;;19.88;4.25;;;11.30;99.90;;;;;;5035914;28;20053;-92
2022/02/21 11:41:10;;;;;;;16.52;4.20;;;11.20;99.90;;;;;;5019505;28;20029;-93
2022/02/21 11:43:44;;;;;;;20.27;3.67;;;11.20;99.90;;;;;;5016057;28;20040;-93
2022/02/21 11:46:20;;;;;;;15.88;4.25;;;11.40;99.90;;;;;;5018136;28;20405;-95
2022/02/21 11:49:01;;;;;;;20.42;4.38;;;11.30;99.90;;;;;;5016175;28;20561;-93
2022/02/21 11:51:34;;;;;;;18.55;4.60;;;11.00;99.90;;;;;;5035041;28;20029;-94
2022/02/21 11:54:09;;;;;;;17.80;4.18;;;10.90;99.90;;;;;;5017213;28;20128;-93
2022/02/21 11:56:50;;;;;;;17.08;4.55;;;11.10;99.90;;;;;;5033125;28;20033;-94
2022/02/21 11:59:22;;;;;;;18.02;4.85;;;11.30;99.90;;;;;;5034553;28;20123;-93
2022/02/21 12:01:48;;;;;;;21.17;4.50;;;11.50;99.90;;;;;;5034434;28;20025;-94
2022/02/21 12:04:20;;;;;;;18.67;4.20;;;11.50;99.90;;;;;;5034452;28;20336;-94
2022/02/21 12:06:58;;;;;;;16.13;4.32;;;11.70;99.90;;;;;;5018234;28;20032;-94
2022/02/21 12:09:28;;;;;;;19.80;4.13;;;11.30;99.90;;;;;;5001049;28;20021;-94
2022/02/21 12:12:26;;;;;;;17.60;4.25;;;11.20;99.90;;;;;;5028190;28;20026;-93
2022/02/21 12:15:11;;;;;;;22.83;4.70;;;11.00;99.90;;;;;;5030595;28;20034;-93
2022/02/21 12:17:37;;;;;;;20.92;4.07;;;11.10;99.90;;;;;;5031983;28;20080;-93
2022/02/21 12:20:28;;;;;;;17.85;4.32;;;11.10;99.90;;;;;;5019300;28;20425;-93
2022/02/21 12:23:05;;;;;;;23.67;4.63;;;10.90;99.90;;;;;;5033910;28;20041;-93
2022/02/21 12:25:40;;;;;;;24.55;4.63;;;11.10;99.90;;;;;;5033627;28;20069;-93
2022/02/21 12:28:12;;;;;;;19.55;5.28;;;10.90;99.90;;;;;;5033778;28;20033;-93
2022/02/21 12:30:40;;;;;;;19.13;3.85;;;11.20;99.90;;;;;;5017623;28;20044;-94
2022/02/21 12:33:06;;;;;;;15.68;4.00;;;10.70;99.90;;;;;;5016741;28;20034;-94
2022/02/21 12:35:52;;;;;;;18.48;3.95;;;10.60;99.90;;;;;;5034701;28;20041;-94
2022/02/21 12:38:19;;;;;;;17.73;4.50;;;10.70;99.90;;;;;;5034349;28;20128;-93
2022/02/21 12:41:02;;;;;;;17.30;3.63;;;10.60;99.90;;;;;;5018774;28;20048;-93
2022/02/21 12:43:53;;;;;;;20.42;4.65;;;10.40;99.90;;;;;;5033383;28;20091;-93